KSPS/SPS METAR and TAF weather

Enter ICAO airport designator
Station Type Date Time Source
KSPS METAR 2019/02/20 22:52 UTC NOAA

KSPS 202252Z 24008KT 10SM CLR 14/M07 A2986 RMK AO2 SLP112 T01391067


Station Type Date Time Source
KSPS Decoded METAR 2019/02/20 22:52 UTC NOAA

WICHITA FALLS SHEPPARD AFB, TX, United States (KSPS) 33-59N 98-30W 308M
Feb 20, 2019 - 05:52 PM EST / 2019.02.20 2252 UTC
Wind: from the WSW (240 degrees) at 9 MPH (8 KT):0
Visibility: 10 mile(s):0
Sky conditions: clear
Temperature: 57.0 F (13.9 C)
Dew Point: 19.9 F (-6.7 C)
Relative Humidity: 23%
Pressure (altimeter): 29.86 in. Hg (1011 hPa)
ob: KSPS 202252Z 24008KT 10SM CLR 14/M07 A2986 RMK AO2 SLP112 T01391067
cycle: 23

Station Type Date Time Source
KSPS TAF 2019/02/20 18:22 UTC NOAA

TAF KSPS 201720Z 2018/2118 25011KT P6SM SCT250
FM210000 15006KT P6SM BKN250


Example: see airport list